Terminal Aerodrome Forecast
Issued by NWS

Home | Current Version | Previous Version | Text Only | Print | Product List | Glossary On
Versions: 1 2 3 4 5 6 7 8 9 10 11 12 13
592
FTUS45 KRIW 260527
TAFRKS
TAF
KRKS 260527Z 2606/2706 06010KT P6SM SCT060 BKN090
     FM261100 07005KT P6SM SCT100 BKN200
     FM262100 19012G18KT P6SM VCTS SCT070CB BKN100
     FM270200 21008KT P6SM VCSH BKN100
     FM270500 20006KT P6SM SCT100=

USA.gov is the U.S. government's official web portal to all federal, state and local government web resources and services.